createdAt,value
2018-10-17T00:00:02.995Z,20.00
2018-10-17T00:02:38.123Z,20.10
2018-10-17T00:05:07.591Z,20.10
2018-10-17T00:07:36.732Z,20.10
2018-10-17T00:10:06.654Z,20.10
2018-10-17T00:12:35.686Z,20.10
2018-10-17T00:15:05.005Z,20.10
2018-10-17T00:17:33.917Z,20.10
2018-10-17T00:20:02.854Z,20.10
2018-10-17T00:22:31.805Z,20.10
2018-10-17T00:25:00.858Z,20.10
2018-10-17T00:27:29.761Z,20.10
2018-10-17T00:29:58.636Z,20.00
2018-10-17T00:32:27.685Z,20.00
2018-10-17T00:34:56.613Z,20.00
2018-10-17T00:37:25.477Z,20.00
2018-10-17T00:39:54.321Z,19.90
2018-10-17T00:42:23.285Z,19.90
2018-10-17T00:44:52.447Z,20.20
2018-10-17T00:47:21.304Z,19.80
2018-10-17T00:49:50.169Z,19.80
2018-10-17T00:52:19.004Z,19.70
2018-10-17T00:54:47.861Z,19.70
2018-10-17T00:57:17.805Z,19.60
2018-10-17T00:59:46.697Z,19.60
2018-10-17T01:02:15.605Z,19.60
2018-10-17T01:04:44.489Z,19.60
2018-10-17T01:07:13.446Z,19.60
2018-10-17T01:09:42.233Z,19.60
2018-10-17T01:12:11.135Z,19.50
2018-10-17T01:14:39.989Z,19.60
2018-10-17T01:17:09.027Z,19.50
2018-10-17T01:19:37.959Z,19.50
2018-10-17T01:22:06.896Z,19.50
2018-10-17T01:24:35.757Z,19.30
2018-10-17T01:27:05.065Z,19.30
2018-10-17T01:29:34.012Z,19.30
2018-10-17T01:32:02.853Z,19.30
2018-10-17T01:34:31.682Z,19.30
2018-10-17T01:37:01.567Z,19.20
2018-10-17T01:39:31.113Z,19.20
2018-10-17T01:42:00.742Z,19.20
2018-10-17T01:44:29.785Z,19.20
2018-10-17T01:46:58.715Z,19.20
2018-10-17T01:49:27.557Z,19.20
2018-10-17T01:51:56.409Z,19.10
2018-10-17T01:54:25.277Z,19.10
2018-10-17T01:56:54.117Z,19.10
2018-10-17T01:59:23.052Z,19.10
2018-10-17T02:01:51.971Z,19.10
2018-10-17T02:04:20.874Z,19.00
2018-10-17T02:06:49.826Z,19.00
2018-10-17T02:09:18.821Z,19.00
2018-10-17T02:11:47.734Z,19.00
2018-10-17T02:14:16.657Z,19.00
2018-10-17T02:16:45.530Z,18.90
2018-10-17T02:19:14.499Z,18.90
2018-10-17T02:21:43.320Z,18.90
2018-10-17T02:24:12.174Z,18.90
2018-10-17T02:26:41.064Z,18.90
2018-10-17T02:29:10.057Z,19.00
2018-10-17T02:31:39.437Z,19.00
2018-10-17T02:34:08.286Z,19.00
2018-10-17T02:36:37.577Z,19.00
2018-10-17T02:39:08.941Z,19.00
2018-10-17T02:41:37.797Z,19.00
2018-10-17T02:44:07.175Z,19.00
2018-10-17T02:46:36.181Z,19.00
2018-10-17T02:49:05.528Z,19.00
2018-10-17T02:51:34.429Z,19.00
2018-10-17T02:54:03.357Z,19.00
2018-10-17T02:56:32.211Z,19.00
2018-10-17T02:59:01.081Z,19.00
2018-10-17T03:01:30.033Z,19.00
2018-10-17T03:03:58.880Z,19.00
2018-10-17T03:06:27.785Z,19.00
2018-10-17T03:08:56.717Z,18.90
2018-10-17T03:11:25.546Z,18.90
2018-10-17T03:13:54.473Z,18.90
2018-10-17T03:16:23.331Z,18.90
2018-10-17T03:18:52.249Z,18.90
2018-10-17T03:21:21.146Z,18.80
2018-10-17T03:23:50.154Z,18.80
2018-10-17T03:26:19.145Z,18.80
2018-10-17T03:28:48.044Z,18.80
2018-10-17T03:31:16.986Z,18.70
2018-10-17T03:33:45.838Z,18.70
2018-10-17T03:36:14.758Z,18.70
2018-10-17T03:38:43.699Z,18.70
2018-10-17T03:41:12.592Z,18.70
2018-10-17T03:43:41.528Z,18.70
2018-10-17T03:46:10.413Z,18.60
2018-10-17T03:48:39.246Z,18.60
2018-10-17T03:51:08.113Z,18.60
2018-10-17T03:53:37.087Z,18.60
2018-10-17T03:56:06.086Z,18.60
2018-10-17T03:58:34.983Z,18.60
2018-10-17T04:01:03.879Z,18.50
2018-10-17T04:03:32.709Z,18.50
2018-10-17T04:06:01.600Z,18.50
2018-10-17T04:08:30.431Z,18.50
2018-10-17T04:10:59.377Z,18.50
2018-10-17T04:13:28.278Z,18.40
2018-10-17T04:15:57.129Z,18.40
2018-10-17T04:18:26.017Z,18.40
2018-10-17T04:20:54.902Z,18.40
2018-10-17T04:23:23.768Z,18.40
2018-10-17T04:25:52.713Z,18.40
2018-10-17T04:28:21.619Z,18.40
2018-10-17T04:30:50.505Z,18.40
2018-10-17T04:33:19.370Z,18.30
2018-10-17T04:35:48.854Z,18.30
2018-10-17T04:38:17.838Z,18.30
2018-10-17T04:40:46.698Z,18.30
2018-10-17T04:43:15.650Z,18.30
2018-10-17T04:45:44.595Z,18.30
2018-10-17T04:48:13.556Z,18.20
2018-10-17T04:50:42.552Z,18.20
2018-10-17T04:53:11.534Z,18.20
2018-10-17T04:55:40.454Z,18.30
2018-10-17T04:58:09.310Z,18.20
2018-10-17T05:00:38.224Z,18.20
2018-10-17T05:03:07.110Z,18.20
2018-10-17T05:05:36.026Z,18.20
2018-10-17T05:08:05.327Z,18.20
2018-10-17T05:10:34.229Z,18.20
2018-10-17T05:13:03.334Z,18.10
2018-10-17T05:15:32.414Z,18.20
2018-10-17T05:18:01.310Z,18.20
2018-10-17T05:20:30.150Z,18.10
2018-10-17T05:22:59.087Z,18.20
2018-10-17T05:25:28.033Z,18.20
2018-10-17T05:27:56.854Z,18.20
2018-10-17T05:30:25.760Z,18.20
2018-10-17T05:32:54.741Z,18.20
2018-10-17T05:35:23.595Z,18.20
2018-10-17T05:37:52.638Z,18.20
2018-10-17T05:40:21.741Z,18.30
2018-10-17T05:42:50.628Z,18.40
2018-10-17T05:45:19.542Z,18.50
2018-10-17T05:47:48.547Z,18.60
2018-10-17T05:50:17.402Z,18.80
2018-10-17T05:52:46.425Z,18.90
2018-10-17T05:55:15.410Z,19.10
2018-10-17T05:57:44.398Z,19.20
2018-10-17T06:00:13.425Z,19.30
2018-10-17T06:02:42.351Z,19.40
2018-10-17T06:05:11.301Z,19.50
2018-10-17T06:07:40.221Z,19.40
2018-10-17T06:10:09.595Z,19.40
2018-10-17T06:12:38.609Z,19.30
2018-10-17T06:15:08.034Z,19.30
2018-10-17T06:17:37.043Z,19.20
2018-10-17T06:20:06.609Z,19.20
2018-10-17T06:22:35.456Z,19.20
2018-10-17T06:25:04.477Z,19.20
2018-10-17T06:27:33.406Z,19.20
2018-10-17T06:30:02.262Z,19.20
2018-10-17T06:32:31.101Z,19.20
2018-10-17T06:35:00.073Z,19.30
2018-10-17T06:37:29.760Z,19.40
2018-10-17T06:39:58.674Z,19.70
2018-10-17T06:42:29.964Z,19.90
2018-10-17T06:44:59.325Z,20.30
2018-10-17T06:47:29.138Z,20.60
2018-10-17T06:49:58.153Z,20.80
2018-10-17T06:52:27.169Z,21.10
2018-10-17T06:54:56.121Z,21.40
2018-10-17T06:57:25.066Z,21.70
2018-10-17T06:59:54.010Z,21.90
2018-10-17T07:02:23.024Z,22.10
2018-10-17T07:04:52.179Z,22.30
2018-10-17T07:07:23.242Z,22.40
2018-10-17T07:09:55.414Z,22.50
2018-10-17T07:12:43.212Z,22.60
2018-10-17T07:15:13.925Z,22.70
2018-10-17T07:17:43.509Z,22.90
2018-10-17T07:20:12.814Z,22.80
2018-10-17T07:22:41.753Z,22.90
2018-10-17T07:25:25.564Z,23.00
2018-10-17T07:27:55.949Z,23.10
2018-10-17T07:30:24.803Z,23.20
2018-10-17T07:32:53.716Z,23.30
2018-10-17T07:35:22.729Z,23.40
2018-10-17T07:37:51.727Z,23.50
2018-10-17T07:40:20.653Z,23.80
2018-10-17T07:42:49.590Z,23.90
2018-10-17T07:45:18.518Z,24.20
2018-10-17T07:47:47.465Z,24.40
2018-10-17T07:50:16.453Z,24.60
2018-10-17T07:52:45.744Z,24.60
2018-10-17T07:55:15.079Z,24.50
2018-10-17T07:57:44.514Z,24.60
2018-10-17T08:00:14.311Z,24.70
2018-10-17T08:02:43.239Z,24.80
2018-10-17T08:05:12.135Z,24.80
2018-10-17T08:07:41.030Z,24.70
2018-10-17T08:10:11.090Z,24.60
2018-10-17T08:12:41.506Z,24.60
2018-10-17T08:15:10.620Z,24.70
2018-10-17T08:17:39.622Z,24.90
2018-10-17T08:20:10.191Z,25.10
2018-10-17T08:22:39.586Z,25.30
2018-10-17T08:25:09.805Z,25.60
2018-10-17T08:27:38.863Z,25.80
2018-10-17T08:30:09.254Z,26.10
2018-10-17T08:32:38.758Z,26.10
2018-10-17T08:35:07.915Z,26.10
2018-10-17T08:37:37.585Z,26.10
2018-10-17T08:40:06.911Z,26.10
2018-10-17T08:42:35.893Z,26.10
2018-10-17T08:45:05.405Z,26.00
2018-10-17T08:47:34.285Z,25.90
2018-10-17T08:50:03.324Z,25.80
2018-10-17T08:52:32.326Z,25.80
2018-10-17T08:55:01.272Z,25.80
2018-10-17T08:57:30.248Z,25.80
2018-10-17T08:59:59.196Z,25.90
2018-10-17T09:02:28.188Z,25.90
2018-10-17T09:04:57.101Z,25.90
2018-10-17T09:07:26.117Z,25.90
2018-10-17T09:09:55.064Z,26.00
2018-10-17T09:12:24.006Z,25.90
2018-10-17T09:14:52.947Z,25.80
2018-10-17T09:17:21.946Z,25.60
2018-10-17T09:19:50.968Z,25.50
2018-10-17T09:22:20.037Z,25.30
2018-10-17T09:24:48.821Z,25.10
2018-10-17T09:27:17.718Z,25.10
2018-10-17T09:29:46.614Z,25.10
2018-10-17T09:32:15.874Z,25.20
2018-10-17T09:34:44.772Z,25.40
2018-10-17T09:37:13.702Z,25.50
2018-10-17T09:39:42.657Z,25.60
2018-10-17T09:42:11.676Z,25.70
2018-10-17T09:44:40.561Z,25.70
2018-10-17T09:47:09.454Z,25.70
2018-10-17T09:49:38.416Z,25.70
2018-10-17T09:52:07.445Z,25.60
2018-10-17T09:54:36.375Z,25.60
2018-10-17T09:57:05.432Z,25.60
2018-10-17T09:59:34.529Z,25.70
2018-10-17T10:02:04.043Z,25.70
2018-10-17T10:04:33.079Z,25.70
2018-10-17T10:07:02.008Z,25.70
2018-10-17T10:09:31.104Z,25.70
2018-10-17T10:12:00.068Z,25.70
2018-10-17T10:14:29.087Z,25.80
2018-10-17T10:16:57.994Z,25.90
2018-10-17T10:19:26.922Z,25.90
2018-10-17T10:21:56.029Z,25.90
2018-10-17T10:24:24.874Z,25.90
2018-10-17T10:26:53.841Z,26.00
2018-10-17T10:29:22.896Z,25.90
2018-10-17T10:31:51.833Z,25.80
2018-10-17T10:34:20.843Z,25.70
2018-10-17T10:36:50.546Z,25.50
2018-10-17T10:39:19.390Z,25.50
2018-10-17T10:41:48.321Z,25.40
2018-10-17T10:44:17.424Z,25.40
2018-10-17T10:46:46.395Z,25.30
2018-10-17T10:49:15.379Z,25.30
2018-10-17T10:51:44.345Z,25.30
2018-10-17T10:54:13.287Z,25.30
2018-10-17T10:56:42.146Z,25.30
2018-10-17T10:59:11.085Z,25.40
2018-10-17T11:01:40.050Z,25.50
2018-10-17T11:04:09.042Z,25.70
2018-10-17T11:06:37.979Z,25.70
2018-10-17T11:09:08.270Z,25.70
2018-10-17T11:11:37.653Z,25.70
2018-10-17T11:14:07.304Z,25.60
2018-10-17T11:16:36.141Z,25.50
2018-10-17T11:19:05.422Z,25.30
2018-10-17T11:21:34.433Z,25.30
2018-10-17T11:24:03.355Z,25.30
2018-10-17T11:26:32.294Z,25.40
2018-10-17T11:29:01.336Z,25.40
2018-10-17T11:31:30.542Z,25.50
2018-10-17T11:34:00.968Z,25.50
2018-10-17T11:36:30.010Z,25.50
2018-10-17T11:38:59.071Z,25.60
2018-10-17T11:41:27.987Z,25.60
2018-10-17T11:43:56.910Z,25.60
2018-10-17T11:46:25.994Z,25.70
2018-10-17T11:48:54.894Z,25.70
2018-10-17T11:51:23.861Z,25.90
2018-10-17T11:53:52.763Z,25.90
2018-10-17T11:56:21.751Z,26.00
2018-10-17T11:58:50.662Z,26.20
2018-10-17T12:01:19.544Z,26.40
2018-10-17T12:03:48.692Z,26.50
2018-10-17T12:06:18.871Z,26.70
2018-10-17T12:08:47.750Z,26.80
2018-10-17T12:11:16.806Z,27.00
2018-10-17T12:13:49.062Z,27.20
2018-10-17T12:16:19.132Z,27.40
2018-10-17T12:18:51.574Z,27.60
2018-10-17T12:21:22.226Z,27.80
2018-10-17T12:23:51.129Z,28.10
2018-10-17T12:26:20.845Z,28.30
2018-10-17T12:28:49.875Z,28.70
2018-10-17T12:31:21.563Z,29.10
2018-10-17T12:33:51.033Z,29.80
2018-10-17T12:36:20.694Z,30.90
2018-10-17T12:38:49.670Z,32.00
2018-10-17T12:41:19.150Z,33.20
2018-10-17T12:43:48.248Z,34.70
2018-10-17T12:46:17.230Z,36.10
2018-10-17T12:48:46.158Z,37.40
2018-10-17T12:51:28.063Z,38.30
2018-10-17T12:54:06.498Z,39.10
2018-10-17T12:56:35.829Z,40.10
2018-10-17T12:59:05.344Z,40.50
2018-10-17T13:01:34.323Z,40.90
2018-10-17T13:04:04.989Z,41.30
2018-10-17T13:06:33.894Z,41.50
2018-10-17T13:09:03.143Z,41.70
2018-10-17T13:11:32.116Z,42.00
2018-10-17T13:14:01.995Z,42.40
2018-10-17T13:16:31.358Z,43.00
2018-10-17T13:19:04.619Z,43.60
2018-10-17T13:21:42.599Z,44.20
2018-10-17T13:24:11.510Z,44.40
2018-10-17T13:26:40.712Z,44.40
2018-10-17T13:29:09.834Z,44.00
2018-10-17T13:31:39.091Z,43.50
2018-10-17T13:34:08.135Z,43.10
2018-10-17T13:36:37.192Z,42.50
2018-10-17T13:39:09.602Z,41.20
2018-10-17T13:41:39.477Z,40.50
2018-10-17T13:44:09.685Z,40.30
2018-10-17T13:46:38.927Z,40.50
2018-10-17T13:49:08.210Z,40.80
2018-10-17T13:51:37.026Z,41.00
2018-10-17T13:54:06.525Z,40.80
2018-10-17T13:56:39.694Z,40.00
2018-10-17T13:59:16.378Z,38.60
2018-10-17T14:01:45.704Z,37.00
2018-10-17T14:04:15.058Z,35.80
2018-10-17T14:06:46.151Z,35.40
2018-10-17T14:09:22.490Z,35.30
2018-10-17T14:11:51.522Z,35.20
2018-10-17T14:14:21.329Z,35.30
2018-10-17T14:16:50.229Z,36.00
2018-10-17T14:19:19.303Z,36.60
2018-10-17T14:21:48.254Z,37.50
2018-10-17T14:24:17.336Z,38.30
2018-10-17T14:26:46.306Z,38.60
2018-10-17T14:29:15.265Z,38.70
2018-10-17T14:31:44.422Z,38.70
2018-10-17T14:34:13.615Z,38.40
2018-10-17T14:36:42.616Z,38.30
2018-10-17T14:39:12.924Z,38.30
2018-10-17T14:41:41.833Z,38.30
2018-10-17T14:44:11.026Z,38.00
2018-10-17T14:46:39.998Z,37.50
2018-10-17T14:49:08.953Z,36.40
2018-10-17T14:51:38.166Z,34.90
2018-10-17T14:54:08.759Z,33.50
2018-10-17T14:56:38.365Z,32.40
2018-10-17T14:59:07.631Z,31.30
2018-10-17T15:01:36.554Z,30.40
2018-10-17T15:04:05.866Z,29.70
2018-10-17T15:06:40.342Z,29.20
2018-10-17T15:09:10.064Z,28.60
2018-10-17T15:11:40.055Z,28.10
2018-10-17T15:14:09.334Z,27.60
2018-10-17T15:16:38.561Z,27.30
2018-10-17T15:19:07.723Z,26.90
2018-10-17T15:21:36.626Z,26.60
2018-10-17T15:24:05.873Z,26.30
2018-10-17T15:26:34.843Z,26.00
2018-10-17T15:29:04.258Z,25.80
2018-10-17T15:31:36.957Z,25.60
2018-10-17T15:34:05.931Z,25.50
2018-10-17T15:36:34.885Z,25.40
2018-10-17T15:39:04.738Z,25.30
2018-10-17T15:41:33.827Z,25.20
2018-10-17T15:44:02.767Z,25.10
2018-10-17T15:46:31.705Z,25.10
2018-10-17T15:49:00.605Z,25.00
2018-10-17T15:51:29.610Z,24.90
2018-10-17T15:53:58.674Z,24.80
2018-10-17T15:56:27.626Z,24.70
2018-10-17T15:58:56.593Z,24.60
2018-10-17T16:01:25.634Z,24.50
2018-10-17T16:03:54.670Z,24.50
2018-10-17T16:06:23.697Z,24.40
2018-10-17T16:08:52.657Z,24.30
2018-10-17T16:11:41.024Z,24.20
2018-10-17T16:14:11.470Z,24.20
2018-10-17T16:16:40.359Z,24.00
2018-10-17T16:19:09.395Z,23.90
2018-10-17T16:21:39.138Z,23.80
2018-10-17T16:24:08.090Z,23.80
2018-10-17T16:26:36.990Z,23.60
2018-10-17T16:29:06.555Z,23.60
2018-10-17T16:31:35.686Z,23.50
2018-10-17T16:34:04.638Z,23.40
2018-10-17T16:36:33.536Z,23.30
2018-10-17T16:39:03.046Z,23.20
2018-10-17T16:41:32.141Z,23.10
2018-10-17T16:44:01.037Z,23.00
2018-10-17T16:46:29.966Z,22.90
2018-10-17T16:48:58.921Z,22.90
2018-10-17T16:51:27.922Z,22.90
2018-10-17T16:53:56.931Z,22.80
2018-10-17T16:56:25.981Z,22.70
2018-10-17T16:58:55.034Z,22.70
2018-10-17T17:01:24.083Z,22.70
2018-10-17T17:03:53.011Z,22.60
2018-10-17T17:06:21.929Z,22.60
2018-10-17T17:08:50.830Z,22.60
2018-10-17T17:11:19.857Z,22.60
2018-10-17T17:13:48.715Z,22.60
2018-10-17T17:16:18.171Z,22.60
2018-10-17T17:18:47.153Z,22.60
2018-10-17T17:21:16.161Z,22.60
2018-10-17T17:23:45.129Z,22.60
2018-10-17T17:26:14.623Z,22.50
2018-10-17T17:28:43.577Z,22.50
2018-10-17T17:31:12.458Z,22.50
2018-10-17T17:33:41.311Z,22.50
2018-10-17T17:36:10.413Z,22.40
2018-10-17T17:38:39.350Z,22.40
2018-10-17T17:41:09.073Z,22.30
2018-10-17T17:43:38.029Z,22.30
2018-10-17T17:46:07.253Z,22.30
2018-10-17T17:48:36.113Z,22.20
2018-10-17T17:51:05.280Z,22.10
2018-10-17T17:53:34.302Z,22.10
2018-10-17T17:56:03.373Z,22.10
2018-10-17T17:58:32.538Z,22.00
2018-10-17T18:01:01.965Z,22.00
2018-10-17T18:03:30.836Z,21.90
2018-10-17T18:05:59.753Z,21.90
2018-10-17T18:08:29.128Z,21.90
2018-10-17T18:11:07.866Z,21.90
2018-10-17T18:13:36.840Z,21.80
2018-10-17T18:16:06.324Z,21.80
2018-10-17T18:18:35.165Z,21.80
2018-10-17T18:21:04.248Z,21.70
2018-10-17T18:23:36.153Z,21.70
2018-10-17T18:26:12.642Z,21.70
2018-10-17T18:28:46.280Z,21.70
2018-10-17T18:31:15.389Z,21.70
2018-10-17T18:33:45.251Z,21.60
2018-10-17T18:36:14.563Z,21.60
2018-10-17T18:38:47.213Z,21.60
2018-10-17T18:41:17.877Z,21.60
2018-10-17T18:43:54.007Z,21.60
2018-10-17T18:46:23.346Z,21.60
2018-10-17T18:48:53.325Z,21.60
2018-10-17T18:51:24.578Z,21.60
2018-10-17T18:53:53.825Z,21.60
2018-10-17T18:56:32.802Z,21.60
2018-10-17T18:59:08.881Z,21.60
2018-10-17T19:01:41.509Z,21.60
2018-10-17T19:04:18.903Z,21.70
2018-10-17T19:06:49.946Z,21.70
2018-10-17T19:09:19.930Z,21.70
2018-10-17T19:11:49.781Z,21.70
2018-10-17T19:14:18.918Z,21.70
2018-10-17T19:16:48.605Z,21.70
2018-10-17T19:19:20.616Z,21.80
2018-10-17T19:21:51.827Z,21.80
2018-10-17T19:24:22.615Z,21.70
2018-10-17T19:26:52.269Z,21.70
2018-10-17T19:29:21.821Z,21.70
2018-10-17T19:31:50.856Z,21.70
2018-10-17T19:34:20.786Z,21.60
2018-10-17T19:36:49.960Z,21.60
2018-10-17T19:39:21.594Z,21.60
2018-10-17T19:41:55.307Z,21.60
2018-10-17T19:44:24.751Z,21.60
2018-10-17T19:46:54.601Z,21.50
2018-10-17T19:49:25.114Z,21.50
2018-10-17T19:52:03.745Z,21.50
2018-10-17T19:54:36.874Z,21.50
2018-10-17T19:57:07.181Z,21.40
2018-10-17T19:59:38.496Z,21.40
2018-10-17T20:02:10.508Z,21.30
2018-10-17T20:04:43.294Z,21.30
2018-10-17T20:07:13.171Z,21.30
2018-10-17T20:09:43.810Z,21.20
2018-10-17T20:12:13.640Z,21.20
2018-10-17T20:14:43.564Z,21.10
2018-10-17T20:17:12.851Z,21.10
2018-10-17T20:19:43.559Z,21.10
2018-10-17T20:22:13.174Z,21.00
2018-10-17T20:24:42.784Z,20.90
2018-10-17T20:27:12.227Z,20.90
2018-10-17T20:29:41.796Z,20.90
2018-10-17T20:32:18.135Z,20.90
2018-10-17T20:34:50.520Z,20.90
2018-10-17T20:37:26.566Z,20.80
2018-10-17T20:40:04.048Z,20.80
2018-10-17T20:42:42.315Z,20.80
2018-10-17T20:45:15.674Z,20.80
2018-10-17T20:47:48.367Z,20.70
2018-10-17T20:50:21.025Z,20.70
2018-10-17T20:52:58.792Z,20.70
2018-10-17T20:55:38.038Z,20.60
2018-10-17T20:58:11.250Z,20.60
2018-10-17T21:00:41.546Z,20.70
2018-10-17T21:03:11.005Z,20.60
2018-10-17T21:05:40.662Z,20.60
2018-10-17T21:08:14.482Z,20.60
2018-10-17T21:10:44.878Z,20.60
2018-10-17T21:13:14.350Z,20.50
2018-10-17T21:15:43.547Z,20.50
2018-10-17T21:18:12.501Z,20.50
2018-10-17T21:20:41.653Z,20.50
2018-10-17T21:23:10.541Z,20.50
2018-10-17T21:25:39.536Z,20.40
2018-10-17T21:28:09.072Z,20.40
2018-10-17T21:30:38.151Z,20.40
2018-10-17T21:33:07.854Z,20.40
2018-10-17T21:35:37.337Z,20.40
2018-10-17T21:38:06.301Z,20.40
2018-10-17T21:40:35.470Z,20.30
2018-10-17T21:43:04.823Z,20.30
2018-10-17T21:45:33.804Z,20.30
2018-10-17T21:48:03.274Z,20.30
2018-10-17T21:50:33.638Z,20.20
2018-10-17T21:53:03.641Z,20.20
2018-10-17T21:55:32.643Z,20.20
2018-10-17T21:58:01.731Z,20.10
2018-10-17T22:00:31.240Z,20.10
2018-10-17T22:03:00.293Z,20.10
2018-10-17T22:05:29.282Z,20.10
2018-10-17T22:07:58.347Z,20.10
2018-10-17T22:10:27.246Z,20.00
2018-10-17T22:12:56.510Z,20.00
2018-10-17T22:15:25.562Z,20.00
2018-10-17T22:17:55.543Z,20.00
2018-10-17T22:20:25.029Z,20.00
2018-10-17T22:22:54.310Z,20.00
2018-10-17T22:25:23.624Z,19.90
2018-10-17T22:27:52.899Z,19.90
2018-10-17T22:33:34.857Z,19.90
2018-10-17T22:36:04.958Z,19.90
2018-10-17T22:38:33.821Z,19.80
2018-10-17T22:41:02.847Z,19.80
2018-10-17T22:43:32.545Z,19.80
2018-10-17T22:46:02.159Z,19.80
2018-10-17T22:48:31.453Z,19.80
2018-10-17T22:51:00.841Z,19.80
2018-10-17T22:53:29.938Z,19.70
2018-10-17T22:55:59.140Z,19.80
2018-10-17T22:58:28.142Z,19.80
2018-10-17T23:00:57.153Z,19.70
2018-10-17T23:03:26.449Z,19.70
2018-10-17T23:05:56.468Z,19.70
2018-10-17T23:08:25.972Z,19.70
2018-10-17T23:10:55.462Z,19.70
2018-10-17T23:13:25.053Z,19.70
2018-10-17T23:15:54.229Z,19.70
2018-10-17T23:18:23.445Z,19.70
2018-10-17T23:20:52.637Z,19.70
2018-10-17T23:23:22.681Z,19.70
2018-10-17T23:25:52.043Z,19.70
2018-10-17T23:28:21.292Z,19.60
2018-10-17T23:30:50.562Z,19.60
2018-10-17T23:33:19.938Z,19.60
2018-10-17T23:35:49.173Z,19.60
2018-10-17T23:38:18.418Z,19.60
2018-10-17T23:40:47.626Z,19.60
2018-10-17T23:43:16.789Z,19.50
2018-10-17T23:45:45.773Z,19.60
2018-10-17T23:48:16.280Z,19.60
2018-10-17T23:50:46.218Z,19.60
2018-10-17T23:53:15.897Z,19.50
2018-10-17T23:55:44.785Z,19.50
2018-10-17T23:58:14.021Z,19.50
